Terminal Aerodrome Forecast
Issued by NWS Missoula, MT

Home | Current Version | Previous Version | Text Only | Print | Product List | Glossary On
Versions: 1 2 3 4 5 6 7 8 9 10 11 12 13 14 15
143
FTUS45 KMSO 241723
TAFBTM
TAF
KBTM 241723Z 2418/2518 VRB03KT P6SM BKN060
     FM242000 31008KT P6SM -SHRA BKN060
     FM242200 31008KT P6SM -SHRA VCTS BKN050CB
     FM250100 VRB05KT P6SM BKN060=

USA.gov is the U.S. government's official web portal to all federal, state and local government web resources and services.